sensor_id;sensor_type;location;lat;lon;timestamp;P1;durP1;ratioP1;P2;durP2;ratioP2
22955;SDS011;40888;48.148;11.526;2023-09-19T00:00:32;1.80;;;1.02;;
22955;SDS011;40888;48.148;11.526;2023-09-19T00:02:59;1.75;;;0.98;;
22955;SDS011;40888;48.148;11.526;2023-09-19T00:05:25;1.02;;;1.02;;
22955;SDS011;40888;48.148;11.526;2023-09-19T00:07:53;2.95;;;1.23;;
22955;SDS011;40888;48.148;11.526;2023-09-19T00:10:23;4.45;;;1.40;;
22955;SDS011;40888;48.148;11.526;2023-09-19T00:12:51;4.25;;;1.38;;
22955;SDS011;40888;48.148;11.526;2023-09-19T00:15:20;1.10;;;1.00;;
22955;SDS011;40888;48.148;11.526;2023-09-19T00:17:46;0.90;;;0.90;;
22955;SDS011;40888;48.148;11.526;2023-09-19T00:20:13;1.27;;;1.17;;
22955;SDS011;40888;48.148;11.526;2023-09-19T00:22:42;2.00;;;1.60;;
22955;SDS011;40888;48.148;11.526;2023-09-19T00:25:08;1.17;;;1.08;;
22955;SDS011;40888;48.148;11.526;2023-09-19T00:27:35;1.38;;;1.13;;
22955;SDS011;40888;48.148;11.526;2023-09-19T00:30:05;1.27;;;1.02;;
22955;SDS011;40888;48.148;11.526;2023-09-19T00:32:34;1.23;;;1.10;;
22955;SDS011;40888;48.148;11.526;2023-09-19T00:35:00;2.22;;;0.95;;
22955;SDS011;40888;48.148;11.526;2023-09-19T00:37:26;1.10;;;1.00;;
22955;SDS011;40888;48.148;11.526;2023-09-19T00:39:52;1.15;;;0.90;;
22955;SDS011;40888;48.148;11.526;2023-09-19T00:42:19;2.13;;;1.30;;
22955;SDS011;40888;48.148;11.526;2023-09-19T00:44:46;2.22;;;1.30;;
22955;SDS011;40888;48.148;11.526;2023-09-19T00:47:12;2.13;;;1.20;;
22955;SDS011;40888;48.148;11.526;2023-09-19T00:49:45;1.30;;;1.20;;
22955;SDS011;40888;48.148;11.526;2023-09-19T00:52:15;1.98;;;1.15;;
22955;SDS011;40888;48.148;11.526;2023-09-19T00:54:46;3.20;;;1.30;;
22955;SDS011;40888;48.148;11.526;2023-09-19T00:57:13;1.48;;;1.20;;
22955;SDS011;40888;48.148;11.526;2023-09-19T00:59:54;2.47;;;1.38;;
22955;SDS011;40888;48.148;11.526;2023-09-19T01:02:20;1.90;;;1.13;;
22955;SDS011;40888;48.148;11.526;2023-09-19T01:04:47;1.83;;;1.10;;
22955;SDS011;40888;48.148;11.526;2023-09-19T01:07:13;2.05;;;1.52;;
22955;SDS011;40888;48.148;11.526;2023-09-19T01:09:40;0.85;;;0.85;;
22955;SDS011;40888;48.148;11.526;2023-09-19T01:12:07;1.58;;;1.10;;
22955;SDS011;40888;48.148;11.526;2023-09-19T01:14:36;2.30;;;1.00;;
22955;SDS011;40888;48.148;11.526;2023-09-19T01:17:14;1.42;;;1.10;;
22955;SDS011;40888;48.148;11.526;2023-09-19T01:19:50;1.30;;;1.20;;
22955;SDS011;40888;48.148;11.526;2023-09-19T01:22:26;1.88;;;1.10;;
22955;SDS011;40888;48.148;11.526;2023-09-19T01:30:08;3.65;;;1.20;;
22955;SDS011;40888;48.148;11.526;2023-09-19T01:32:35;1.13;;;1.02;;
22955;SDS011;40888;48.148;11.526;2023-09-19T01:35:03;2.38;;;1.20;;
22955;SDS011;40888;48.148;11.526;2023-09-19T01:37:29;2.03;;;1.52;;
22955;SDS011;40888;48.148;11.526;2023-09-19T01:39:58;1.60;;;1.02;;
22955;SDS011;40888;48.148;11.526;2023-09-19T01:42:50;0.98;;;0.90;;
22955;SDS011;40888;48.148;11.526;2023-09-19T01:45:25;2.10;;;1.27;;
22955;SDS011;40888;48.148;11.526;2023-09-19T01:47:53;2.33;;;1.40;;
22955;SDS011;40888;48.148;11.526;2023-09-19T01:50:34;1.85;;;0.95;;
22955;SDS011;40888;48.148;11.526;2023-09-19T01:55:47;1.73;;;0.90;;
22955;SDS011;40888;48.148;11.526;2023-09-19T01:58:20;6.75;;;1.38;;
22955;SDS011;40888;48.148;11.526;2023-09-19T02:00:48;1.67;;;1.13;;
22955;SDS011;40888;48.148;11.526;2023-09-19T02:03:17;1.75;;;1.33;;
22955;SDS011;40888;48.148;11.526;2023-09-19T02:05:52;1.35;;;1.25;;
22955;SDS011;40888;48.148;11.526;2023-09-19T02:08:19;3.30;;;1.10;;
22955;SDS011;40888;48.148;11.526;2023-09-19T02:10:46;2.03;;;1.30;;
22955;SDS011;40888;48.148;11.526;2023-09-19T02:13:20;1.73;;;1.20;;
22955;SDS011;40888;48.148;11.526;2023-09-19T02:15:50;2.10;;;1.35;;
22955;SDS011;40888;48.148;11.526;2023-09-19T02:18:16;1.05;;;1.00;;
22955;SDS011;40888;48.148;11.526;2023-09-19T02:20:43;2.28;;;0.95;;
22955;SDS011;40888;48.148;11.526;2023-09-19T02:23:10;1.67;;;1.30;;
22955;SDS011;40888;48.148;11.526;2023-09-19T02:25:37;2.28;;;1.33;;
22955;SDS011;40888;48.148;11.526;2023-09-19T02:28:05;1.05;;;0.95;;
22955;SDS011;40888;48.148;11.526;2023-09-19T02:30:32;1.40;;;1.30;;
22955;SDS011;40888;48.148;11.526;2023-09-19T02:32:58;2.25;;;1.10;;
22955;SDS011;40888;48.148;11.526;2023-09-19T02:35:28;1.10;;;1.00;;
22955;SDS011;40888;48.148;11.526;2023-09-19T02:38:00;2.00;;;1.15;;
22955;SDS011;40888;48.148;11.526;2023-09-19T02:40:26;3.63;;;1.40;;
22955;SDS011;40888;48.148;11.526;2023-09-19T02:42:54;2.53;;;1.20;;
22955;SDS011;40888;48.148;11.526;2023-09-19T02:45:20;1.75;;;1.58;;
22955;SDS011;40888;48.148;11.526;2023-09-19T02:47:48;2.03;;;0.93;;
22955;SDS011;40888;48.148;11.526;2023-09-19T02:50:14;2.75;;;1.30;;
22955;SDS011;40888;48.148;11.526;2023-09-19T02:52:41;1.40;;;1.20;;
22955;SDS011;40888;48.148;11.526;2023-09-19T02:55:14;2.43;;;1.43;;
22955;SDS011;40888;48.148;11.526;2023-09-19T02:58:00;1.40;;;1.30;;
22955;SDS011;40888;48.148;11.526;2023-09-19T03:00:27;2.40;;;1.20;;
22955;SDS011;40888;48.148;11.526;2023-09-19T03:02:53;1.95;;;1.75;;
22955;SDS011;40888;48.148;11.526;2023-09-19T03:05:20;3.97;;;1.20;;
22955;SDS011;40888;48.148;11.526;2023-09-19T03:07:47;3.53;;;1.57;;
22955;SDS011;40888;48.148;11.526;2023-09-19T03:10:16;2.03;;;1.20;;
22955;SDS011;40888;48.148;11.526;2023-09-19T03:12:43;1.77;;;1.30;;
22955;SDS011;40888;48.148;11.526;2023-09-19T03:15:09;2.90;;;1.30;;
22955;SDS011;40888;48.148;11.526;2023-09-19T03:17:36;0.93;;;0.93;;
22955;SDS011;40888;48.148;11.526;2023-09-19T03:20:02;1.60;;;1.25;;
22955;SDS011;40888;48.148;11.526;2023-09-19T03:22:34;1.40;;;1.30;;
22955;SDS011;40888;48.148;11.526;2023-09-19T03:25:00;1.47;;;1.23;;
22955;SDS011;40888;48.148;11.526;2023-09-19T03:27:26;1.95;;;1.50;;
22955;SDS011;40888;48.148;11.526;2023-09-19T03:29:52;3.55;;;1.40;;
22955;SDS011;40888;48.148;11.526;2023-09-19T03:32:19;3.33;;;1.23;;
22955;SDS011;40888;48.148;11.526;2023-09-19T03:34:45;3.80;;;1.30;;
22955;SDS011;40888;48.148;11.526;2023-09-19T03:37:13;2.08;;;1.20;;
22955;SDS011;40888;48.148;11.526;2023-09-19T03:39:40;1.48;;;1.38;;
22955;SDS011;40888;48.148;11.526;2023-09-19T03:42:06;1.30;;;1.20;;
22955;SDS011;40888;48.148;11.526;2023-09-19T03:44:32;2.03;;;1.10;;
22955;SDS011;40888;48.148;11.526;2023-09-19T03:46:58;1.37;;;1.33;;
22955;SDS011;40888;48.148;11.526;2023-09-19T03:49:25;2.70;;;1.30;;
22955;SDS011;40888;48.148;11.526;2023-09-19T03:51:51;2.00;;;1.80;;
22955;SDS011;40888;48.148;11.526;2023-09-19T03:54:17;2.60;;;1.20;;
22955;SDS011;40888;48.148;11.526;2023-09-19T03:56:44;3.50;;;1.67;;
22955;SDS011;40888;48.148;11.526;2023-09-19T03:59:11;1.50;;;1.40;;
22955;SDS011;40888;48.148;11.526;2023-09-19T04:01:37;2.45;;;1.63;;
22955;SDS011;40888;48.148;11.526;2023-09-19T04:04:04;2.33;;;1.60;;
22955;SDS011;40888;48.148;11.526;2023-09-19T04:06:36;3.45;;;1.70;;
22955;SDS011;40888;48.148;11.526;2023-09-19T04:09:03;3.93;;;1.43;;
22955;SDS011;40888;48.148;11.526;2023-09-19T04:11:29;2.67;;;1.83;;
22955;SDS011;40888;48.148;11.526;2023-09-19T04:13:56;2.30;;;1.37;;
22955;SDS011;40888;48.148;11.526;2023-09-19T04:16:22;1.70;;;1.60;;
22955;SDS011;40888;48.148;11.526;2023-09-19T04:18:48;1.80;;;1.50;;
22955;SDS011;40888;48.148;11.526;2023-09-19T04:21:15;2.27;;;2.03;;
22955;SDS011;40888;48.148;11.526;2023-09-19T04:23:41;2.10;;;1.90;;
22955;SDS011;40888;48.148;11.526;2023-09-19T04:26:08;1.90;;;1.50;;
22955;SDS011;40888;48.148;11.526;2023-09-19T04:28:34;3.27;;;1.90;;
22955;SDS011;40888;48.148;11.526;2023-09-19T04:31:03;2.23;;;1.60;;
22955;SDS011;40888;48.148;11.526;2023-09-19T04:33:29;2.90;;;1.67;;
22955;SDS011;40888;48.148;11.526;2023-09-19T04:35:56;3.90;;;1.63;;
22955;SDS011;40888;48.148;11.526;2023-09-19T04:38:22;1.73;;;1.63;;
22955;SDS011;40888;48.148;11.526;2023-09-19T04:40:48;2.40;;;1.60;;
22955;SDS011;40888;48.148;11.526;2023-09-19T04:43:14;3.00;;;1.80;;
22955;SDS011;40888;48.148;11.526;2023-09-19T04:45:40;2.83;;;1.83;;
22955;SDS011;40888;48.148;11.526;2023-09-19T04:48:07;2.37;;;1.70;;
22955;SDS011;40888;48.148;11.526;2023-09-19T04:50:33;1.80;;;1.60;;
22955;SDS011;40888;48.148;11.526;2023-09-19T04:53:00;2.60;;;1.45;;
22955;SDS011;40888;48.148;11.526;2023-09-19T04:55:26;2.10;;;1.63;;
22955;SDS011;40888;48.148;11.526;2023-09-19T04:57:52;1.77;;;1.53;;
22955;SDS011;40888;48.148;11.526;2023-09-19T05:00:19;1.87;;;1.77;;
22955;SDS011;40888;48.148;11.526;2023-09-19T05:02:48;2.70;;;1.93;;
22955;SDS011;40888;48.148;11.526;2023-09-19T05:05:15;2.87;;;1.57;;
22955;SDS011;40888;48.148;11.526;2023-09-19T05:07:42;2.70;;;1.53;;
22955;SDS011;40888;48.148;11.526;2023-09-19T05:10:09;3.13;;;1.77;;
22955;SDS011;40888;48.148;11.526;2023-09-19T05:12:37;1.60;;;1.30;;
22955;SDS011;40888;48.148;11.526;2023-09-19T05:15:23;1.77;;;1.30;;
22955;SDS011;40888;48.148;11.526;2023-09-19T05:17:49;3.93;;;1.40;;
22955;SDS011;40888;48.148;11.526;2023-09-19T05:20:16;1.60;;;1.50;;
22955;SDS011;40888;48.148;11.526;2023-09-19T05:25:27;2.03;;;1.60;;
22955;SDS011;40888;48.148;11.526;2023-09-19T05:27:56;3.13;;;1.40;;
22955;SDS011;40888;48.148;11.526;2023-09-19T05:30:23;1.50;;;1.40;;
22955;SDS011;40888;48.148;11.526;2023-09-19T05:32:49;1.93;;;1.57;;
22955;SDS011;40888;48.148;11.526;2023-09-19T05:35:16;1.60;;;1.50;;
22955;SDS011;40888;48.148;11.526;2023-09-19T05:37:42;3.03;;;1.67;;
22955;SDS011;40888;48.148;11.526;2023-09-19T05:40:09;3.30;;;1.70;;
22955;SDS011;40888;48.148;11.526;2023-09-19T05:42:35;2.30;;;1.47;;
22955;SDS011;40888;48.148;11.526;2023-09-19T05:45:06;2.20;;;1.60;;
22955;SDS011;40888;48.148;11.526;2023-09-19T05:47:32;2.13;;;1.40;;
22955;SDS011;40888;48.148;11.526;2023-09-19T05:49:59;1.97;;;1.40;;
22955;SDS011;40888;48.148;11.526;2023-09-19T05:52:25;2.30;;;1.40;;
22955;SDS011;40888;48.148;11.526;2023-09-19T05:54:51;4.23;;;1.40;;
22955;SDS011;40888;48.148;11.526;2023-09-19T05:57:17;2.73;;;1.50;;
22955;SDS011;40888;48.148;11.526;2023-09-19T05:59:44;2.00;;;1.57;;
22955;SDS011;40888;48.148;11.526;2023-09-19T06:02:10;2.25;;;1.50;;
22955;SDS011;40888;48.148;11.526;2023-09-19T06:04:37;1.47;;;1.20;;
22955;SDS011;40888;48.148;11.526;2023-09-19T06:07:06;2.50;;;1.45;;
22955;SDS011;40888;48.148;11.526;2023-09-19T06:09:32;2.23;;;1.57;;
22955;SDS011;40888;48.148;11.526;2023-09-19T06:11:58;3.25;;;1.50;;
22955;SDS011;40888;48.148;11.526;2023-09-19T06:14:29;1.35;;;1.00;;
22955;SDS011;40888;48.148;11.526;2023-09-19T06:16:56;2.05;;;1.50;;
22955;SDS011;40888;48.148;11.526;2023-09-19T06:19:22;4.75;;;1.52;;
22955;SDS011;40888;48.148;11.526;2023-09-19T06:21:50;3.30;;;1.50;;
22955;SDS011;40888;48.148;11.526;2023-09-19T06:24:19;1.75;;;1.50;;
22955;SDS011;40888;48.148;11.526;2023-09-19T06:26:46;3.22;;;1.20;;
22955;SDS011;40888;48.148;11.526;2023-09-19T06:29:13;3.08;;;1.23;;
22955;SDS011;40888;48.148;11.526;2023-09-19T06:31:39;1.75;;;1.23;;
22955;SDS011;40888;48.148;11.526;2023-09-19T06:34:05;1.70;;;1.20;;
22955;SDS011;40888;48.148;11.526;2023-09-19T06:36:32;1.55;;;1.20;;
22955;SDS011;40888;48.148;11.526;2023-09-19T06:38:58;2.38;;;1.45;;
22955;SDS011;40888;48.148;11.526;2023-09-19T06:41:24;1.35;;;1.25;;
22955;SDS011;40888;48.148;11.526;2023-09-19T06:43:51;3.53;;;1.17;;
22955;SDS011;40888;48.148;11.526;2023-09-19T06:46:21;1.17;;;1.08;;
22955;SDS011;40888;48.148;11.526;2023-09-19T06:48:47;3.88;;;1.20;;
22955;SDS011;40888;48.148;11.526;2023-09-19T06:51:14;3.80;;;1.08;;
22955;SDS011;40888;48.148;11.526;2023-09-19T06:53:41;2.58;;;1.30;;
22955;SDS011;40888;48.148;11.526;2023-09-19T06:56:07;1.88;;;1.20;;
22955;SDS011;40888;48.148;11.526;2023-09-19T06:58:34;1.27;;;1.17;;
22955;SDS011;40888;48.148;11.526;2023-09-19T07:01:01;1.52;;;1.02;;
22955;SDS011;40888;48.148;11.526;2023-09-19T07:03:28;1.30;;;1.10;;
22955;SDS011;40888;48.148;11.526;2023-09-19T07:05:54;1.70;;;1.08;;
22955;SDS011;40888;48.148;11.526;2023-09-19T07:08:21;0.93;;;0.90;;
22955;SDS011;40888;48.148;11.526;2023-09-19T07:10:47;1.33;;;1.10;;
22955;SDS011;40888;48.148;11.526;2023-09-19T07:13:14;0.90;;;0.90;;
22955;SDS011;40888;48.148;11.526;2023-09-19T07:15:42;1.40;;;0.93;;
22955;SDS011;40888;48.148;11.526;2023-09-19T07:18:12;3.05;;;1.58;;
22955;SDS011;40888;48.148;11.526;2023-09-19T07:20:39;1.30;;;0.95;;
22955;SDS011;40888;48.148;11.526;2023-09-19T07:23:11;4.43;;;1.10;;
22955;SDS011;40888;48.148;11.526;2023-09-19T07:25:39;1.10;;;1.00;;
22955;SDS011;40888;48.148;11.526;2023-09-19T07:28:05;1.45;;;1.20;;
22955;SDS011;40888;48.148;11.526;2023-09-19T07:30:32;3.25;;;1.17;;
22955;SDS011;40888;48.148;11.526;2023-09-19T07:32:58;1.17;;;1.08;;
22955;SDS011;40888;48.148;11.526;2023-09-19T07:35:24;1.83;;;1.20;;
22955;SDS011;40888;48.148;11.526;2023-09-19T07:37:50;3.67;;;1.13;;
22955;SDS011;40888;48.148;11.526;2023-09-19T07:40:17;1.42;;;1.13;;
22955;SDS011;40888;48.148;11.526;2023-09-19T07:42:43;2.30;;;1.02;;
22955;SDS011;40888;48.148;11.526;2023-09-19T07:45:12;1.70;;;1.10;;
22955;SDS011;40888;48.148;11.526;2023-09-19T07:47:48;1.65;;;1.10;;
22955;SDS011;40888;48.148;11.526;2023-09-19T07:50:18;1.60;;;1.20;;
22955;SDS011;40888;48.148;11.526;2023-09-19T07:52:45;0.98;;;0.85;;
22955;SDS011;40888;48.148;11.526;2023-09-19T07:55:11;4.68;;;1.08;;
22955;SDS011;40888;48.148;11.526;2023-09-19T07:57:41;1.70;;;1.20;;
22955;SDS011;40888;48.148;11.526;2023-09-19T08:00:09;2.50;;;1.00;;
22955;SDS011;40888;48.148;11.526;2023-09-19T08:02:35;1.00;;;0.90;;
22955;SDS011;40888;48.148;11.526;2023-09-19T08:05:03;2.42;;;1.20;;
22955;SDS011;40888;48.148;11.526;2023-09-19T08:07:39;1.58;;;0.75;;
22955;SDS011;40888;48.148;11.526;2023-09-19T08:10:05;0.93;;;0.88;;
22955;SDS011;40888;48.148;11.526;2023-09-19T08:12:42;2.70;;;0.68;;
22955;SDS011;40888;48.148;11.526;2023-09-19T08:15:15;1.33;;;1.05;;
22955;SDS011;40888;48.148;11.526;2023-09-19T08:17:41;1.05;;;0.80;;
22955;SDS011;40888;48.148;11.526;2023-09-19T08:20:08;0.98;;;0.80;;
22955;SDS011;40888;48.148;11.526;2023-09-19T08:22:51;2.67;;;1.13;;
22955;SDS011;40888;48.148;11.526;2023-09-19T08:25:26;1.00;;;0.73;;
22955;SDS011;40888;48.148;11.526;2023-09-19T08:27:56;1.38;;;1.25;;
22955;SDS011;40888;48.148;11.526;2023-09-19T08:30:25;1.50;;;1.00;;
22955;SDS011;40888;48.148;11.526;2023-09-19T08:32:58;0.80;;;0.80;;
22955;SDS011;40888;48.148;11.526;2023-09-19T08:35:25;1.48;;;0.82;;
22955;SDS011;40888;48.148;11.526;2023-09-19T08:37:59;1.27;;;0.90;;
22955;SDS011;40888;48.148;11.526;2023-09-19T08:42:59;2.42;;;0.82;;
22955;SDS011;40888;48.148;11.526;2023-09-19T08:45:26;3.10;;;1.08;;
22955;SDS011;40888;48.148;11.526;2023-09-19T08:50:31;0.90;;;0.77;;
22955;SDS011;40888;48.148;11.526;2023-09-19T08:53:00;2.13;;;1.00;;
22955;SDS011;40888;48.148;11.526;2023-09-19T08:55:27;2.20;;;1.08;;
22955;SDS011;40888;48.148;11.526;2023-09-19T08:57:59;2.15;;;1.00;;
22955;SDS011;40888;48.148;11.526;2023-09-19T09:00:27;1.58;;;1.00;;
22955;SDS011;40888;48.148;11.526;2023-09-19T09:02:54;0.75;;;0.75;;
22955;SDS011;40888;48.148;11.526;2023-09-19T09:05:21;1.98;;;0.85;;
22955;SDS011;40888;48.148;11.526;2023-09-19T09:07:48;0.93;;;0.80;;
22955;SDS011;40888;48.148;11.526;2023-09-19T09:10:18;0.93;;;0.65;;
22955;SDS011;40888;48.148;11.526;2023-09-19T09:12:57;1.38;;;0.88;;
22955;SDS011;40888;48.148;11.526;2023-09-19T09:15:24;1.02;;;0.90;;
22955;SDS011;40888;48.148;11.526;2023-09-19T09:17:51;1.55;;;0.90;;
22955;SDS011;40888;48.148;11.526;2023-09-19T09:20:22;0.88;;;0.80;;
22955;SDS011;40888;48.148;11.526;2023-09-19T09:22:55;1.38;;;0.77;;
22955;SDS011;40888;48.148;11.526;2023-09-19T09:28:10;1.70;;;0.75;;
22955;SDS011;40888;48.148;11.526;2023-09-19T09:30:36;1.73;;;1.15;;
22955;SDS011;40888;48.148;11.526;2023-09-19T09:33:10;1.20;;;1.00;;
22955;SDS011;40888;48.148;11.526;2023-09-19T09:35:37;1.50;;;1.00;;
22955;SDS011;40888;48.148;11.526;2023-09-19T09:38:07;1.35;;;0.82;;
22955;SDS011;40888;48.148;11.526;2023-09-19T09:40:50;1.08;;;0.98;;
22955;SDS011;40888;48.148;11.526;2023-09-19T09:43:25;1.45;;;1.10;;
22955;SDS011;40888;48.148;11.526;2023-09-19T09:46:17;1.58;;;1.00;;
22955;SDS011;40888;48.148;11.526;2023-09-19T09:48:48;1.15;;;0.93;;
22955;SDS011;40888;48.148;11.526;2023-09-19T09:54:28;2.08;;;0.88;;
22955;SDS011;40888;48.148;11.526;2023-09-19T09:57:14;1.08;;;0.98;;
22955;SDS011;40888;48.148;11.526;2023-09-19T10:02:12;1.10;;;1.00;;
22955;SDS011;40888;48.148;11.526;2023-09-19T10:04:40;1.52;;;0.80;;
22955;SDS011;40888;48.148;11.526;2023-09-19T10:07:24;1.00;;;0.90;;
22955;SDS011;40888;48.148;11.526;2023-09-19T10:10:03;0.82;;;0.82;;
22955;SDS011;40888;48.148;11.526;2023-09-19T10:12:42;1.55;;;1.10;;
22955;SDS011;40888;48.148;11.526;2023-09-19T10:15:09;1.67;;;0.80;;
22955;SDS011;40888;48.148;11.526;2023-09-19T10:17:37;1.30;;;0.85;;
22955;SDS011;40888;48.148;11.526;2023-09-19T10:20:08;1.33;;;0.95;;
22955;SDS011;40888;48.148;11.526;2023-09-19T10:22:45;1.08;;;0.80;;
22955;SDS011;40888;48.148;11.526;2023-09-19T10:25:26;1.70;;;1.00;;
22955;SDS011;40888;48.148;11.526;2023-09-19T10:27:56;1.40;;;1.08;;
22955;SDS011;40888;48.148;11.526;2023-09-19T10:30:24;2.05;;;0.98;;
22955;SDS011;40888;48.148;11.526;2023-09-19T10:32:56;1.40;;;1.20;;
22955;SDS011;40888;48.148;11.526;2023-09-19T10:35:23;3.25;;;1.17;;
22955;SDS011;40888;48.148;11.526;2023-09-19T10:37:50;1.23;;;1.13;;
22955;SDS011;40888;48.148;11.526;2023-09-19T10:40:16;1.40;;;1.10;;
22955;SDS011;40888;48.148;11.526;2023-09-19T10:42:43;2.65;;;1.30;;
22955;SDS011;40888;48.148;11.526;2023-09-19T10:45:11;4.57;;;1.15;;
22955;SDS011;40888;48.148;11.526;2023-09-19T10:47:40;2.58;;;1.00;;
22955;SDS011;40888;48.148;11.526;2023-09-19T10:50:06;1.75;;;1.08;;
22955;SDS011;40888;48.148;11.526;2023-09-19T10:52:37;0.90;;;0.80;;
22955;SDS011;40888;48.148;11.526;2023-09-19T10:55:05;3.05;;;0.80;;
22955;SDS011;40888;48.148;11.526;2023-09-19T10:57:32;2.08;;;0.90;;
22955;SDS011;40888;48.148;11.526;2023-09-19T11:05:40;1.33;;;1.20;;
22955;SDS011;40888;48.148;11.526;2023-09-19T11:08:07;1.60;;;1.13;;
22955;SDS011;40888;48.148;11.526;2023-09-19T11:10:48;3.40;;;1.17;;
22955;SDS011;40888;48.148;11.526;2023-09-19T11:26:41;1.80;;;0.57;;
22955;SDS011;40888;48.148;11.526;2023-09-19T11:29:28;1.30;;;0.77;;
22955;SDS011;40888;48.148;11.526;2023-09-19T11:31:55;2.67;;;0.93;;
22955;SDS011;40888;48.148;11.526;2023-09-19T11:39:39;1.75;;;0.90;;
22955;SDS011;40888;48.148;11.526;2023-09-19T11:44:53;1.55;;;0.70;;
22955;SDS011;40888;48.148;11.526;2023-09-19T11:47:21;1.63;;;0.88;;
22955;SDS011;40888;48.148;11.526;2023-09-19T11:49:50;0.82;;;0.82;;
22955;SDS011;40888;48.148;11.526;2023-09-19T11:52:21;1.38;;;0.80;;
22955;SDS011;40888;48.148;11.526;2023-09-19T11:54:54;0.38;;;0.38;;
22955;SDS011;40888;48.148;11.526;2023-09-19T11:57:22;1.70;;;0.80;;
22955;SDS011;40888;48.148;11.526;2023-09-19T11:59:48;1.48;;;0.90;;
22955;SDS011;40888;48.148;11.526;2023-09-19T12:02:27;1.48;;;0.80;;
22955;SDS011;40888;48.148;11.526;2023-09-19T12:04:59;1.75;;;0.80;;
22955;SDS011;40888;48.148;11.526;2023-09-19T12:07:25;2.70;;;0.70;;
22955;SDS011;40888;48.148;11.526;2023-09-19T12:10:02;2.05;;;0.82;;
22955;SDS011;40888;48.148;11.526;2023-09-19T12:12:29;1.15;;;0.70;;
22955;SDS011;40888;48.148;11.526;2023-09-19T12:14:58;2.80;;;0.88;;
22955;SDS011;40888;48.148;11.526;2023-09-19T12:17:34;0.88;;;0.88;;
22955;SDS011;40888;48.148;11.526;2023-09-19T12:20:01;1.08;;;0.98;;
22955;SDS011;40888;48.148;11.526;2023-09-19T12:22:44;2.40;;;0.90;;
22955;SDS011;40888;48.148;11.526;2023-09-19T12:25:11;0.85;;;0.68;;
22955;SDS011;40888;48.148;11.526;2023-09-19T12:27:56;1.65;;;0.90;;
22955;SDS011;40888;48.148;11.526;2023-09-19T12:30:27;1.10;;;1.00;;
22955;SDS011;40888;48.148;11.526;2023-09-19T12:32:58;1.00;;;0.90;;
22955;SDS011;40888;48.148;11.526;2023-09-19T12:35:28;0.95;;;0.65;;
22955;SDS011;40888;48.148;11.526;2023-09-19T12:37:55;1.20;;;0.70;;
22955;SDS011;40888;48.148;11.526;2023-09-19T12:40:22;1.30;;;0.98;;
22955;SDS011;40888;48.148;11.526;2023-09-19T12:42:53;1.10;;;0.77;;
22955;SDS011;40888;48.148;11.526;2023-09-19T12:45:20;0.82;;;0.82;;
22955;SDS011;40888;48.148;11.526;2023-09-19T12:50:33;1.88;;;0.80;;
22955;SDS011;40888;48.148;11.526;2023-09-19T12:52:59;1.02;;;0.95;;
22955;SDS011;40888;48.148;11.526;2023-09-19T12:55:26;1.23;;;0.90;;
22955;SDS011;40888;48.148;11.526;2023-09-19T12:58:07;2.00;;;0.90;;
22955;SDS011;40888;48.148;11.526;2023-09-19T13:00:38;1.00;;;0.90;;
22955;SDS011;40888;48.148;11.526;2023-09-19T13:03:12;4.10;;;1.05;;
22955;SDS011;40888;48.148;11.526;2023-09-19T13:05:47;2.03;;;0.95;;
22955;SDS011;40888;48.148;11.526;2023-09-19T13:08:17;1.27;;;0.95;;
22955;SDS011;40888;48.148;11.526;2023-09-19T13:13:35;0.90;;;0.90;;
22955;SDS011;40888;48.148;11.526;2023-09-19T13:16:02;1.55;;;0.80;;
22955;SDS011;40888;48.148;11.526;2023-09-19T13:18:29;1.73;;;1.00;;
22955;SDS011;40888;48.148;11.526;2023-09-19T13:21:06;3.25;;;0.98;;
22955;SDS011;40888;48.148;11.526;2023-09-19T13:23:49;0.85;;;0.77;;
22955;SDS011;40888;48.148;11.526;2023-09-19T13:26:15;0.80;;;0.80;;
22955;SDS011;40888;48.148;11.526;2023-09-19T13:28:41;1.80;;;0.85;;
22955;SDS011;40888;48.148;11.526;2023-09-19T13:31:09;2.00;;;0.95;;
22955;SDS011;40888;48.148;11.526;2023-09-19T13:33:42;1.20;;;0.70;;
22955;SDS011;40888;48.148;11.526;2023-09-19T13:36:08;0.80;;;0.80;;
22955;SDS011;40888;48.148;11.526;2023-09-19T13:38:34;0.95;;;0.80;;
22955;SDS011;40888;48.148;11.526;2023-09-19T13:41:01;4.38;;;1.20;;
22955;SDS011;40888;48.148;11.526;2023-09-19T13:43:27;1.48;;;1.00;;
22955;SDS011;40888;48.148;11.526;2023-09-19T13:45:54;1.77;;;0.80;;
22955;SDS011;40888;48.148;11.526;2023-09-19T13:48:20;1.75;;;0.70;;
22955;SDS011;40888;48.148;11.526;2023-09-19T13:50:47;1.60;;;0.93;;
22955;SDS011;40888;48.148;11.526;2023-09-19T13:53:14;2.13;;;1.02;;
22955;SDS011;40888;48.148;11.526;2023-09-19T13:55:40;1.35;;;0.88;;
22955;SDS011;40888;48.148;11.526;2023-09-19T13:58:07;2.90;;;1.23;;
22955;SDS011;40888;48.148;11.526;2023-09-19T14:00:36;1.63;;;0.80;;
22955;SDS011;40888;48.148;11.526;2023-09-19T14:03:03;3.42;;;1.20;;
22955;SDS011;40888;48.148;11.526;2023-09-19T14:05:30;1.65;;;0.98;;
22955;SDS011;40888;48.148;11.526;2023-09-19T14:07:56;3.47;;;0.95;;
22955;SDS011;40888;48.148;11.526;2023-09-19T14:10:24;1.25;;;1.05;;
22955;SDS011;40888;48.148;11.526;2023-09-19T14:12:53;1.40;;;0.98;;
22955;SDS011;40888;48.148;11.526;2023-09-19T14:15:19;1.42;;;0.85;;
22955;SDS011;40888;48.148;11.526;2023-09-19T14:17:45;0.52;;;0.52;;
22955;SDS011;40888;48.148;11.526;2023-09-19T14:20:11;1.67;;;0.98;;
22955;SDS011;40888;48.148;11.526;2023-09-19T14:22:37;1.75;;;0.55;;
22955;SDS011;40888;48.148;11.526;2023-09-19T14:25:04;2.58;;;0.65;;
22955;SDS011;40888;48.148;11.526;2023-09-19T14:27:30;1.35;;;0.85;;
22955;SDS011;40888;48.148;11.526;2023-09-19T14:29:56;2.08;;;0.93;;
22955;SDS011;40888;48.148;11.526;2023-09-19T14:32:23;1.60;;;0.88;;
22955;SDS011;40888;48.148;11.526;2023-09-19T14:34:49;1.45;;;1.02;;
22955;SDS011;40888;48.148;11.526;2023-09-19T14:37:15;1.67;;;1.05;;
22955;SDS011;40888;48.148;11.526;2023-09-19T14:39:41;3.33;;;0.85;;
22955;SDS011;40888;48.148;11.526;2023-09-19T14:42:11;1.45;;;0.60;;
22955;SDS011;40888;48.148;11.526;2023-09-19T14:44:37;1.52;;;0.80;;
22955;SDS011;40888;48.148;11.526;2023-09-19T14:47:03;1.55;;;0.73;;
22955;SDS011;40888;48.148;11.526;2023-09-19T14:49:33;1.40;;;0.85;;
22955;SDS011;40888;48.148;11.526;2023-09-19T14:52:00;1.63;;;0.70;;
22955;SDS011;40888;48.148;11.526;2023-09-19T14:54:29;1.10;;;1.00;;
22955;SDS011;40888;48.148;11.526;2023-09-19T14:56:56;1.42;;;0.60;;
22955;SDS011;40888;48.148;11.526;2023-09-19T14:59:32;0.70;;;0.70;;
22955;SDS011;40888;48.148;11.526;2023-09-19T15:02:02;1.55;;;1.00;;
22955;SDS011;40888;48.148;11.526;2023-09-19T15:04:29;1.33;;;0.95;;
22955;SDS011;40888;48.148;11.526;2023-09-19T15:06:55;0.63;;;0.60;;
22955;SDS011;40888;48.148;11.526;2023-09-19T15:09:21;0.70;;;0.60;;
22955;SDS011;40888;48.148;11.526;2023-09-19T15:11:54;1.33;;;1.00;;
22955;SDS011;40888;48.148;11.526;2023-09-19T15:14:21;2.00;;;1.00;;
22955;SDS011;40888;48.148;11.526;2023-09-19T15:16:47;5.10;;;1.15;;
22955;SDS011;40888;48.148;11.526;2023-09-19T15:19:14;1.73;;;0.77;;
22955;SDS011;40888;48.148;11.526;2023-09-19T15:21:40;1.00;;;0.57;;
22955;SDS011;40888;48.148;11.526;2023-09-19T15:24:07;1.50;;;1.05;;
22955;SDS011;40888;48.148;11.526;2023-09-19T15:26:35;1.05;;;0.65;;
22955;SDS011;40888;48.148;11.526;2023-09-19T15:29:07;1.35;;;0.70;;
22955;SDS011;40888;48.148;11.526;2023-09-19T15:31:34;1.25;;;1.10;;
22955;SDS011;40888;48.148;11.526;2023-09-19T15:34:04;1.35;;;0.80;;
22955;SDS011;40888;48.148;11.526;2023-09-19T15:36:30;1.00;;;0.85;;
22955;SDS011;40888;48.148;11.526;2023-09-19T15:41:26;1.60;;;1.00;;